Time;durP1;ratioP1;P1;durP2;ratioP2;P2;SDS_P1;SDS_P2;PMS_P1;PMS_P2;Temp;Humidity;BMP_temperature;BMP_pressure;BME280_temperature;BME280_humidity;BME280_pressure;Samples;Min_cycle;Max_cycle;Signal;HPM_P1;HPM_P2
2023/10/29 00:01:42;;;;;;;6.27;2.00;;;12.00;99.90;;;;;;5031048;28;20472;-78
2023/10/29 00:04:32;;;;;;;8.97;2.50;;;11.90;99.90;;;;;;5027416;28;20463;-78
2023/10/29 00:07:19;;;;;;;8.27;2.20;;;11.90;99.90;;;;;;5021206;28;20467;-77
2023/10/29 00:10:06;;;;;;;6.00;2.33;;;12.00;99.90;;;;;;5027736;28;20448;-76
2023/10/29 00:12:52;;;;;;;5.73;2.30;;;12.00;99.90;;;;;;5025796;28;20484;-77
2023/10/29 00:15:38;;;;;;;4.23;1.60;;;12.00;99.90;;;;;;5033393;28;20546;-77
2023/10/29 00:18:24;;;;;;;6.73;2.07;;;12.00;99.90;;;;;;5037546;28;20426;-78
2023/10/29 00:21:10;;;;;;;5.50;1.53;;;12.00;99.90;;;;;;5036695;28;20455;-76
2023/10/29 00:23:57;;;;;;;5.63;2.10;;;12.00;99.90;;;;;;5031172;28;20463;-77
2023/10/29 00:26:42;;;;;;;14.30;2.10;;;12.10;99.90;;;;;;5030694;28;20463;-78
2023/10/29 00:29:28;;;;;;;13.90;2.40;;;12.00;99.90;;;;;;5031793;28;20450;-78
2023/10/29 00:32:15;;;;;;;6.33;2.00;;;11.90;99.90;;;;;;5032256;28;20544;-78
2023/10/29 00:35:01;;;;;;;7.00;2.00;;;11.90;99.90;;;;;;5035245;28;20470;-78
2023/10/29 00:37:47;;;;;;;4.20;2.10;;;11.90;99.90;;;;;;5036287;28;20447;-77
2023/10/29 00:40:38;;;;;;;9.13;2.20;;;11.90;99.90;;;;;;5034308;28;20450;-78
2023/10/29 00:43:24;;;;;;;4.93;2.33;;;11.90;99.90;;;;;;5031264;28;20514;-76
2023/10/29 00:46:12;;;;;;;6.73;1.90;;;11.90;99.90;;;;;;5027563;28;20451;-77
2023/10/29 00:48:59;;;;;;;10.87;2.23;;;11.90;99.90;;;;;;5032200;28;20472;-78
2023/10/29 00:51:46;;;;;;;3.93;2.40;;;11.90;99.90;;;;;;5035283;28;20461;-78
2023/10/29 00:54:32;;;;;;;4.33;1.70;;;11.80;99.90;;;;;;5033640;28;20444;-78
2023/10/29 00:57:19;;;;;;;6.40;1.60;;;11.90;99.90;;;;;;5029445;28;21907;-78
2023/10/29 01:00:06;;;;;;;5.53;2.30;;;11.90;99.90;;;;;;5030330;28;20521;-76
2023/10/29 01:02:52;;;;;;;5.90;2.00;;;11.90;99.90;;;;;;5028650;28;20463;-78
2023/10/29 01:05:39;;;;;;;6.63;2.17;;;11.90;99.90;;;;;;5032053;28;20425;-76
2023/10/29 01:08:26;;;;;;;2.73;1.77;;;11.90;99.90;;;;;;5032161;28;20814;-78
2023/10/29 01:11:11;;;;;;;3.53;2.03;;;11.90;99.90;;;;;;5036909;28;20451;-78
2023/10/29 01:13:58;;;;;;;4.50;2.40;;;11.90;99.90;;;;;;5038178;28;20537;-78
2023/10/29 01:16:44;;;;;;;5.83;2.07;;;11.90;99.90;;;;;;5037872;28;20446;-78
2023/10/29 01:19:30;;;;;;;4.60;1.87;;;11.90;99.90;;;;;;5040397;28;21008;-78
2023/10/29 01:22:16;;;;;;;8.27;2.30;;;11.90;99.90;;;;;;5034258;28;20495;-78
2023/10/29 01:25:07;;;;;;;6.73;2.97;;;11.90;99.90;;;;;;5031447;28;20448;-78
2023/10/29 01:27:52;;;;;;;7.07;2.90;;;11.90;99.90;;;;;;5031767;28;20447;-78
2023/10/29 01:30:39;;;;;;;5.07;2.17;;;12.00;99.90;;;;;;5035123;28;21925;-77
2023/10/29 01:33:26;;;;;;;6.93;2.17;;;11.90;99.90;;;;;;5035051;28;20483;-78
2023/10/29 01:36:12;;;;;;;3.33;2.10;;;11.90;99.90;;;;;;5034977;28;20452;-77
2023/10/29 01:38:58;;;;;;;9.87;2.57;;;11.90;99.90;;;;;;5038192;28;20455;-78
2023/10/29 01:41:43;;;;;;;4.80;1.90;;;11.90;99.90;;;;;;5034718;28;20474;-76
2023/10/29 01:44:29;;;;;;;5.87;2.80;;;11.90;99.90;;;;;;5036279;28;20961;-77
2023/10/29 01:47:17;;;;;;;7.60;1.93;;;11.90;99.90;;;;;;5037433;28;20455;-76
2023/10/29 01:50:02;;;;;;;6.97;2.20;;;12.00;99.90;;;;;;5036142;28;20451;-78
2023/10/29 01:52:53;;;;;;;6.07;1.50;;;12.00;99.90;;;;;;5035922;28;20539;-78
2023/10/29 01:55:39;;;;;;;3.17;1.77;;;12.10;99.90;;;;;;5032525;28;21265;-78
2023/10/29 01:58:25;;;;;;;4.80;2.00;;;12.10;99.90;;;;;;5037304;28;20523;-78
2023/10/29 02:01:10;;;;;;;8.90;2.40;;;12.00;99.90;;;;;;5034883;28;21043;-78
2023/10/29 02:03:58;;;;;;;5.43;1.57;;;12.00;99.90;;;;;;5032751;28;20463;-78
2023/10/29 02:06:43;;;;;;;3.90;1.90;;;12.00;99.90;;;;;;5036135;28;20781;-78
2023/10/29 02:09:29;;;;;;;2.90;1.70;;;12.00;99.90;;;;;;5036503;28;20455;-78
2023/10/29 02:12:15;;;;;;;6.70;2.00;;;11.90;99.90;;;;;;5030628;28;20469;-78
2023/10/29 02:15:01;;;;;;;3.43;1.80;;;11.90;99.90;;;;;;5031508;28;20450;-78
2023/10/29 02:17:47;;;;;;;3.93;1.63;;;12.00;99.90;;;;;;5037277;28;20454;-78
2023/10/29 02:20:34;;;;;;;8.80;1.60;;;12.00;99.90;;;;;;5032845;28;20431;-78
2023/10/29 02:23:21;;;;;;;3.37;1.97;;;12.00;99.90;;;;;;5033979;28;20562;-77
2023/10/29 02:26:06;;;;;;;4.90;2.50;;;12.00;99.90;;;;;;5028189;28;20447;-77
2023/10/29 02:28:52;;;;;;;3.90;1.83;;;12.00;99.90;;;;;;5032262;28;20444;-78
2023/10/29 02:31:38;;;;;;;8.93;2.20;;;12.00;99.90;;;;;;5035996;28;20936;-78
2023/10/29 02:34:23;;;;;;;3.03;1.87;;;12.00;99.90;;;;;;5037618;28;20449;-78
2023/10/29 02:37:09;;;;;;;7.60;2.13;;;11.90;99.90;;;;;;5036941;28;20502;-77
2023/10/29 02:39:56;;;;;;;5.80;2.17;;;12.00;99.90;;;;;;5037549;28;20813;-78
2023/10/29 02:42:42;;;;;;;8.90;1.73;;;12.00;99.90;;;;;;5030817;28;20453;-78
2023/10/29 02:45:29;;;;;;;3.97;1.57;;;11.90;99.90;;;;;;5035804;28;20508;-78
2023/10/29 02:48:15;;;;;;;3.17;1.90;;;11.90;99.90;;;;;;5036892;28;20466;-76
2023/10/29 02:51:01;;;;;;;3.10;1.40;;;11.90;99.90;;;;;;5035003;28;20443;-77
2023/10/29 02:53:47;;;;;;;3.80;1.73;;;11.90;99.90;;;;;;5033613;28;20546;-78
2023/10/29 02:56:35;;;;;;;6.33;3.00;;;11.90;99.90;;;;;;5030156;28;20459;-77
2023/10/29 02:59:22;;;;;;;4.90;2.00;;;11.80;99.90;;;;;;5035628;28;20531;-78
2023/10/29 03:02:07;;;;;;;7.87;1.80;;;11.80;99.90;;;;;;5030929;28;20455;-77
2023/10/29 03:04:53;;;;;;;3.33;1.70;;;11.90;99.90;;;;;;5033765;28;20834;-78
2023/10/29 03:07:39;;;;;;;5.87;1.77;;;11.90;99.90;;;;;;5032522;28;20742;-78
2023/10/29 03:10:24;;;;;;;7.17;1.87;;;11.80;99.90;;;;;;5028119;28;20563;-76
2023/10/29 03:13:11;;;;;;;3.00;1.80;;;11.80;99.90;;;;;;5030646;28;20470;-78
2023/10/29 03:15:57;;;;;;;3.80;1.40;;;11.80;99.90;;;;;;5034328;28;20586;-77
2023/10/29 03:18:42;;;;;;;12.00;1.60;;;11.80;99.90;;;;;;5030338;28;20435;-77
2023/10/29 03:21:28;;;;;;;2.23;1.40;;;11.80;99.90;;;;;;5032483;28;20485;-77
2023/10/29 03:24:15;;;;;;;2.40;1.60;;;11.80;99.90;;;;;;5034054;28;20472;-78
2023/10/29 03:27:01;;;;;;;11.37;1.77;;;11.80;99.90;;;;;;5031246;28;20436;-78
2023/10/29 03:29:48;;;;;;;8.50;1.80;;;11.90;99.90;;;;;;5033929;28;20527;-78
2023/10/29 03:32:33;;;;;;;4.53;2.10;;;11.80;99.90;;;;;;5033373;28;20478;-77
2023/10/29 03:35:19;;;;;;;4.37;1.60;;;11.80;99.90;;;;;;5032498;28;20455;-76
2023/10/29 03:38:05;;;;;;;4.20;1.63;;;11.80;99.90;;;;;;5034570;28;20539;-77
2023/10/29 03:40:50;;;;;;;2.73;1.60;;;11.80;99.90;;;;;;5029783;28;20513;-77
2023/10/29 03:43:36;;;;;;;3.73;1.90;;;11.80;99.90;;;;;;5036102;28;20579;-77
2023/10/29 03:46:23;;;;;;;3.27;1.60;;;11.90;99.90;;;;;;5032083;28;20439;-78
2023/10/29 03:49:09;;;;;;;8.37;2.00;;;11.90;99.90;;;;;;5031486;28;20532;-78
2023/10/29 03:51:54;;;;;;;4.43;1.83;;;11.80;99.90;;;;;;5035608;28;20464;-77
2023/10/29 03:54:40;;;;;;;7.17;1.90;;;11.80;99.90;;;;;;5031553;28;20472;-78
2023/10/29 03:57:26;;;;;;;4.73;1.87;;;11.80;99.90;;;;;;5033182;28;20457;-78
2023/10/29 04:00:12;;;;;;;3.70;1.50;;;11.90;99.90;;;;;;5031342;28;20978;-78
2023/10/29 04:02:59;;;;;;;3.03;2.07;;;11.90;99.90;;;;;;5028262;28;20531;-78
2023/10/29 04:05:45;;;;;;;2.43;1.70;;;11.90;99.90;;;;;;5021017;28;20429;-77
2023/10/29 04:08:30;;;;;;;7.00;1.93;;;11.90;99.90;;;;;;5030797;28;20497;-77
2023/10/29 04:11:16;;;;;;;7.00;2.00;;;11.90;99.90;;;;;;5031020;28;21198;-77
2023/10/29 04:14:02;;;;;;;6.77;1.70;;;11.90;99.90;;;;;;5035854;28;20453;-76
2023/10/29 04:16:48;;;;;;;5.03;1.70;;;11.90;99.90;;;;;;5024022;28;21076;-78
2023/10/29 04:19:35;;;;;;;4.80;1.67;;;11.90;99.90;;;;;;5033331;28;20494;-78
2023/10/29 04:22:22;;;;;;;3.77;2.00;;;12.00;99.90;;;;;;5033204;28;20579;-76
2023/10/29 04:25:08;;;;;;;5.60;1.87;;;12.00;99.90;;;;;;5036310;28;20567;-77
2023/10/29 04:27:54;;;;;;;10.13;1.70;;;11.90;99.90;;;;;;5036850;28;20443;-78
2023/10/29 04:30:40;;;;;;;9.53;1.47;;;12.00;99.90;;;;;;5037896;28;20453;-77
2023/10/29 04:33:26;;;;;;;3.47;1.50;;;12.00;99.90;;;;;;5037448;28;20468;-78
2023/10/29 04:36:20;;;;;;;5.50;2.07;;;12.10;99.90;;;;;;5040394;28;20419;-77
2023/10/29 04:39:06;;;;;;;6.83;1.80;;;12.00;99.90;;;;;;5029812;28;20405;-77
2023/10/29 04:41:51;;;;;;;6.60;1.70;;;12.10;99.90;;;;;;5035303;28;20472;-76
2023/10/29 04:44:37;;;;;;;3.07;1.37;;;12.10;99.90;;;;;;5037422;28;20411;-77
2023/10/29 04:47:23;;;;;;;4.83;1.90;;;12.10;99.90;;;;;;5038496;28;20447;-78
2023/10/29 04:50:09;;;;;;;5.00;2.00;;;12.10;99.90;;;;;;5036989;28;20542;-78
2023/10/29 04:52:56;;;;;;;5.73;2.30;;;12.10;99.90;;;;;;5036444;28;20462;-78
2023/10/29 04:55:41;;;;;;;11.03;3.27;;;12.10;99.90;;;;;;5037097;28;20439;-78
2023/10/29 04:58:27;;;;;;;2.37;1.83;;;12.20;99.90;;;;;;5037946;28;20621;-78
2023/10/29 05:01:13;;;;;;;5.00;1.60;;;12.20;99.90;;;;;;5037818;28;20454;-78
2023/10/29 05:03:59;;;;;;;5.47;1.40;;;12.20;99.90;;;;;;5031914;28;20459;-78
2023/10/29 05:06:44;;;;;;;5.27;1.40;;;12.20;99.90;;;;;;5038509;28;20867;-77
2023/10/29 05:09:31;;;;;;;3.10;1.63;;;12.20;99.90;;;;;;5035379;28;20667;-78
2023/10/29 05:12:17;;;;;;;3.90;1.70;;;12.20;99.90;;;;;;5036788;28;20469;-77
2023/10/29 05:15:03;;;;;;;2.73;1.67;;;12.20;99.90;;;;;;5034598;28;20479;-77
2023/10/29 05:17:48;;;;;;;4.40;1.70;;;12.20;99.90;;;;;;5038124;28;20495;-78
2023/10/29 05:20:34;;;;;;;5.17;1.60;;;12.20;99.90;;;;;;5036464;28;20479;-78
2023/10/29 05:23:19;;;;;;;4.27;1.20;;;12.20;99.90;;;;;;5030484;28;20487;-76
2023/10/29 05:26:07;;;;;;;3.67;1.53;;;12.20;99.90;;;;;;5027707;28;20452;-78
2023/10/29 05:28:52;;;;;;;4.90;1.50;;;12.20;99.90;;;;;;5026592;28;20562;-74
2023/10/29 05:31:38;;;;;;;10.23;1.90;;;12.20;99.90;;;;;;5031271;28;20522;-78
2023/10/29 05:34:24;;;;;;;3.63;1.67;;;12.20;99.90;;;;;;5031649;28;20506;-76
2023/10/29 05:37:09;;;;;;;4.63;1.40;;;12.20;99.90;;;;;;5030603;28;20574;-76
2023/10/29 05:39:55;;;;;;;8.87;1.90;;;12.20;99.90;;;;;;5029602;28;20464;-77
2023/10/29 05:42:42;;;;;;;3.47;1.50;;;12.10;99.90;;;;;;5029652;28;20521;-78
2023/10/29 05:45:28;;;;;;;5.00;1.50;;;12.10;99.90;;;;;;5030292;28;20443;-79
2023/10/29 05:48:13;;;;;;;5.37;1.20;;;12.20;99.90;;;;;;5029791;28;20495;-75
2023/10/29 05:50:59;;;;;;;2.50;1.60;;;12.10;99.90;;;;;;5031044;28;20811;-76
2023/10/29 05:53:46;;;;;;;3.77;1.60;;;12.10;99.90;;;;;;5026309;28;20553;-79
2023/10/29 05:56:32;;;;;;;2.67;1.20;;;12.10;99.90;;;;;;5029993;28;20467;-76
2023/10/29 05:59:20;;;;;;;8.37;1.30;;;12.10;99.90;;;;;;5027248;28;20447;-78
2023/10/29 06:02:08;;;;;;;3.20;1.27;;;12.10;99.90;;;;;;5028500;28;20968;-78
2023/10/29 06:04:53;;;;;;;2.47;1.40;;;12.20;99.90;;;;;;5032971;28;20469;-78
2023/10/29 06:07:43;;;;;;;3.83;1.63;;;12.10;99.90;;;;;;5036211;28;20452;-78
2023/10/29 06:10:29;;;;;;;6.10;1.70;;;12.20;99.90;;;;;;5032337;28;20514;-78
2023/10/29 06:13:15;;;;;;;4.07;1.50;;;12.20;99.90;;;;;;5035640;28;20434;-78
2023/10/29 06:16:07;;;;;;;4.50;2.00;;;12.20;99.90;;;;;;5030714;28;20440;-78
2023/10/29 06:18:53;;;;;;;5.57;1.90;;;12.20;99.90;;;;;;5033806;28;20477;-78
2023/10/29 06:21:39;;;;;;;4.60;1.20;;;12.30;99.90;;;;;;5035064;28;20472;-76
2023/10/29 06:24:25;;;;;;;5.13;2.13;;;12.30;99.90;;;;;;5034066;28;20426;-78
2023/10/29 06:27:11;;;;;;;3.80;1.50;;;12.30;99.90;;;;;;5027722;28;20804;-78
2023/10/29 06:29:56;;;;;;;5.40;1.37;;;12.30;99.90;;;;;;5031375;28;20397;-78
2023/10/29 06:32:45;;;;;;;4.10;1.50;;;12.30;99.90;;;;;;5032849;28;20459;-77
2023/10/29 06:35:30;;;;;;;5.40;2.10;;;12.40;99.90;;;;;;5033128;28;20607;-75
2023/10/29 06:38:16;;;;;;;4.30;1.50;;;12.40;99.90;;;;;;5030601;28;20448;-75
2023/10/29 06:41:02;;;;;;;5.00;1.67;;;12.40;99.90;;;;;;5027184;28;20554;-76
2023/10/29 06:43:48;;;;;;;3.03;1.60;;;12.40;99.90;;;;;;5026958;28;20530;-76
2023/10/29 06:46:34;;;;;;;4.40;2.30;;;12.40;99.90;;;;;;5029828;28;20502;-75
2023/10/29 06:49:21;;;;;;;3.40;1.67;;;12.50;99.90;;;;;;5027400;28;20455;-76
2023/10/29 06:52:08;;;;;;;6.83;2.10;;;12.60;99.90;;;;;;5029582;28;20837;-76
2023/10/29 06:54:53;;;;;;;4.23;1.60;;;12.70;99.90;;;;;;5032004;28;20463;-76
2023/10/29 06:57:39;;;;;;;3.20;1.80;;;12.70;99.90;;;;;;5030403;28;20508;-78
2023/10/29 07:00:24;;;;;;;6.00;2.00;;;12.80;99.90;;;;;;5036821;28;20435;-78
2023/10/29 07:03:10;;;;;;;4.40;1.90;;;12.80;99.90;;;;;;5033953;28;20559;-78
2023/10/29 07:06:05;;;;;;;6.60;1.80;;;12.90;99.90;;;;;;5029029;28;20977;-77
2023/10/29 07:08:51;;;;;;;8.17;2.20;;;12.90;99.90;;;;;;5035538;28;20416;-77
2023/10/29 07:11:37;;;;;;;5.80;2.23;;;12.90;99.90;;;;;;5030751;28;20419;-78
2023/10/29 07:14:23;;;;;;;2.80;1.73;;;12.90;99.90;;;;;;5032034;28;20519;-78
2023/10/29 07:17:09;;;;;;;8.80;3.37;;;13.00;99.90;;;;;;5032928;28;20428;-78
2023/10/29 07:19:54;;;;;;;5.10;2.30;;;13.00;99.90;;;;;;5035504;28;21013;-78
2023/10/29 07:22:42;;;;;;;2.63;2.00;;;13.00;99.90;;;;;;5030628;28;20815;-77
2023/10/29 07:25:27;;;;;;;6.00;2.67;;;13.00;99.90;;;;;;5030359;28;20484;-77
2023/10/29 07:28:13;;;;;;;3.77;2.20;;;13.00;99.90;;;;;;5033161;28;20451;-77
2023/10/29 07:30:59;;;;;;;5.23;2.00;;;13.10;99.90;;;;;;5031982;28;20479;-77
2023/10/29 07:33:45;;;;;;;4.73;2.30;;;13.10;99.90;;;;;;5031474;28;20948;-77
2023/10/29 07:36:31;;;;;;;3.90;2.07;;;13.10;99.90;;;;;;5032079;28;20499;-78
2023/10/29 07:39:18;;;;;;;4.47;2.03;;;13.10;99.90;;;;;;5032062;28;20488;-77
2023/10/29 07:42:04;;;;;;;7.83;2.00;;;13.10;99.90;;;;;;5030864;28;20470;-78
2023/10/29 07:44:49;;;;;;;3.03;1.57;;;13.20;99.90;;;;;;5034332;28;20521;-78
2023/10/29 07:47:35;;;;;;;4.30;2.67;;;13.20;99.90;;;;;;5032174;28;20465;-78
2023/10/29 07:50:21;;;;;;;4.00;2.10;;;13.20;99.90;;;;;;5034623;28;20423;-78
2023/10/29 07:53:07;;;;;;;7.60;2.40;;;13.20;99.90;;;;;;5032086;28;20475;-78
2023/10/29 07:55:54;;;;;;;4.53;2.20;;;13.20;99.90;;;;;;5030264;28;20501;-78
2023/10/29 07:58:40;;;;;;;3.97;2.33;;;13.20;99.90;;;;;;5032874;28;20477;-78
2023/10/29 08:01:25;;;;;;;3.60;2.17;;;13.30;99.90;;;;;;5035399;28;20439;-77
2023/10/29 08:04:11;;;;;;;9.93;4.03;;;13.30;99.90;;;;;;5033081;28;21013;-77
2023/10/29 08:06:57;;;;;;;3.37;2.00;;;13.30;99.90;;;;;;5040074;28;20518;-78
2023/10/29 08:09:43;;;;;;;6.70;2.00;;;13.30;99.90;;;;;;5038447;28;20566;-77
2023/10/29 08:12:31;;;;;;;11.60;2.07;;;13.30;99.90;;;;;;5037670;28;20614;-77
2023/10/29 08:15:16;;;;;;;9.90;1.90;;;13.30;99.90;;;;;;5038585;28;20464;-76
2023/10/29 08:18:02;;;;;;;5.40;2.73;;;13.30;99.90;;;;;;5042744;28;20424;-78
2023/10/29 08:20:48;;;;;;;6.67;2.90;;;13.30;99.90;;;;;;5041047;28;20520;-77
2023/10/29 08:23:34;;;;;;;4.73;1.93;;;13.30;99.90;;;;;;5036645;28;20466;-78
2023/10/29 08:26:20;;;;;;;5.40;2.17;;;13.40;99.90;;;;;;5038222;28;20522;-77
2023/10/29 08:29:07;;;;;;;3.13;1.73;;;13.40;99.90;;;;;;5036360;28;20857;-78
2023/10/29 08:31:52;;;;;;;5.43;1.70;;;13.40;99.90;;;;;;5035878;28;20463;-77
2023/10/29 08:34:38;;;;;;;7.70;1.77;;;13.50;99.90;;;;;;5038942;28;20442;-77
2023/10/29 08:37:24;;;;;;;3.37;1.53;;;13.50;99.90;;;;;;5038949;28;20437;-78
2023/10/29 08:40:10;;;;;;;6.20;1.60;;;13.50;99.90;;;;;;5038075;28;20930;-77
2023/10/29 08:42:56;;;;;;;4.50;1.80;;;13.40;99.90;;;;;;5034978;28;20809;-77
2023/10/29 08:45:43;;;;;;;3.70;1.70;;;13.50;99.90;;;;;;5037519;28;20488;-77
2023/10/29 08:48:29;;;;;;;6.97;2.00;;;13.50;99.90;;;;;;5035601;28;20435;-76
2023/10/29 08:51:15;;;;;;;7.60;4.17;;;13.50;99.90;;;;;;5034884;28;20472;-77
2023/10/29 08:54:03;;;;;;;2.53;1.40;;;13.60;99.90;;;;;;5034855;28;20602;-78
2023/10/29 08:56:49;;;;;;;2.47;1.50;;;13.50;99.90;;;;;;5036248;28;20421;-77
2023/10/29 08:59:34;;;;;;;3.13;1.80;;;13.60;99.90;;;;;;5030962;28;20555;-77
2023/10/29 09:02:21;;;;;;;2.23;1.27;;;13.50;99.90;;;;;;5029462;28;20446;-77
2023/10/29 09:05:08;;;;;;;2.40;1.50;;;13.60;99.90;;;;;;5029808;28;20484;-77
2023/10/29 09:07:53;;;;;;;9.67;1.87;;;13.70;99.90;;;;;;5031831;28;21001;-77
2023/10/29 09:10:42;;;;;;;3.50;1.50;;;13.70;99.90;;;;;;5029698;28;20415;-77
2023/10/29 09:13:28;;;;;;;2.80;2.13;;;13.70;99.90;;;;;;5029616;28;20442;-77
2023/10/29 09:16:14;;;;;;;4.70;1.90;;;13.80;99.90;;;;;;5028838;28;20529;-76
2023/10/29 09:19:01;;;;;;;2.53;1.50;;;13.80;99.90;;;;;;5030286;28;20508;-77
2023/10/29 09:21:47;;;;;;;3.83;1.23;;;13.90;99.90;;;;;;5028665;28;20510;-77
2023/10/29 09:24:32;;;;;;;2.63;1.40;;;13.80;99.90;;;;;;5029433;28;20826;-77
2023/10/29 09:27:18;;;;;;;3.27;1.40;;;13.90;99.90;;;;;;5028968;28;20443;-77
2023/10/29 09:30:05;;;;;;;2.93;1.27;;;13.90;99.90;;;;;;5029264;28;20448;-76
2023/10/29 09:32:52;;;;;;;3.53;1.80;;;13.90;99.90;;;;;;5026643;28;20443;-77
2023/10/29 09:35:40;;;;;;;8.27;1.83;;;13.90;99.90;;;;;;5032815;28;20551;-76
2023/10/29 09:38:25;;;;;;;2.43;1.37;;;14.00;99.90;;;;;;5029121;28;20428;-77
2023/10/29 09:41:11;;;;;;;1.80;1.10;;;13.90;99.90;;;;;;5029062;28;20816;-77
2023/10/29 09:43:59;;;;;;;5.47;1.50;;;14.00;99.90;;;;;;5029672;28;20502;-77
2023/10/29 09:46:46;;;;;;;4.03;1.40;;;14.00;99.90;;;;;;5028169;28;20413;-77
2023/10/29 09:49:31;;;;;;;2.17;1.00;;;14.00;99.90;;;;;;5031154;28;20434;-77
2023/10/29 09:52:20;;;;;;;2.47;1.07;;;14.00;99.90;;;;;;5029169;28;20471;-77
2023/10/29 09:55:10;;;;;;;3.73;1.30;;;13.90;99.90;;;;;;5031544;28;20470;-77
2023/10/29 09:57:56;;;;;;;1.60;1.07;;;13.90;99.90;;;;;;5030675;28;20459;-77
2023/10/29 10:00:42;;;;;;;3.50;1.50;;;13.90;99.90;;;;;;5030855;28;20494;-78
2023/10/29 10:03:27;;;;;;;3.33;1.37;;;13.90;99.90;;;;;;5031785;28;21068;-77
2023/10/29 10:06:15;;;;;;;3.80;1.50;;;13.90;99.90;;;;;;5030167;28;20945;-76
2023/10/29 10:09:02;;;;;;;4.43;1.63;;;13.90;99.90;;;;;;5032003;28;20439;-77
2023/10/29 10:12:03;;;;;;;6.63;1.83;;;13.90;99.90;;;;;;5032659;28;20486;-77
2023/10/29 10:14:49;;;;;;;6.07;2.40;;;13.90;99.90;;;;;;5028932;28;20929;-77
2023/10/29 10:17:35;;;;;;;2.27;1.20;;;13.80;99.90;;;;;;5030840;28;20455;-77
2023/10/29 10:20:22;;;;;;;3.30;1.60;;;13.80;99.90;;;;;;5027163;28;20425;-76
2023/10/29 10:23:11;;;;;;;3.83;2.00;;;13.80;99.90;;;;;;5029607;28;20475;-75
2023/10/29 10:26:01;;;;;;;3.07;2.10;;;13.80;99.90;;;;;;5030790;28;20424;-75
2023/10/29 10:28:54;;;;;;;4.23;2.03;;;13.80;99.90;;;;;;5026988;28;20422;-75
2023/10/29 10:31:40;;;;;;;3.80;1.67;;;13.80;99.90;;;;;;5022699;28;20466;-75
2023/10/29 10:34:25;;;;;;;3.07;2.03;;;13.80;99.90;;;;;;5029297;28;20455;-75
2023/10/29 10:37:11;;;;;;;5.03;2.40;;;13.80;99.90;;;;;;5030407;28;20475;-75
2023/10/29 10:39:57;;;;;;;4.47;1.80;;;13.70;99.90;;;;;;5025563;28;20985;-75
2023/10/29 10:42:45;;;;;;;4.03;2.70;;;13.70;99.90;;;;;;5026954;28;20973;-75
2023/10/29 10:45:33;;;;;;;3.00;1.90;;;13.80;99.90;;;;;;5028879;28;20430;-76
2023/10/29 10:48:19;;;;;;;7.30;2.20;;;13.70;99.90;;;;;;5026517;28;20796;-76
2023/10/29 10:51:06;;;;;;;3.30;1.73;;;13.80;99.90;;;;;;5022962;28;20523;-76
2023/10/29 10:53:52;;;;;;;12.23;4.40;;;13.80;99.90;;;;;;5026891;28;21075;-76
2023/10/29 10:56:39;;;;;;;4.93;1.97;;;13.80;99.90;;;;;;5027949;28;20496;-76
2023/10/29 10:59:26;;;;;;;2.60;1.63;;;13.80;99.90;;;;;;5023683;28;20422;-75
2023/10/29 11:02:12;;;;;;;4.63;2.00;;;13.80;99.90;;;;;;5024151;28;20495;-76
2023/10/29 11:04:58;;;;;;;2.67;1.83;;;13.80;99.90;;;;;;5022572;28;20467;-75
2023/10/29 11:07:45;;;;;;;8.70;2.37;;;13.90;99.90;;;;;;5025842;28;20459;-75
2023/10/29 11:10:31;;;;;;;5.53;4.03;;;13.90;99.90;;;;;;5021802;28;20590;-76
2023/10/29 11:13:20;;;;;;;3.00;1.43;;;13.90;99.90;;;;;;5026810;28;20473;-76
2023/10/29 11:16:21;;;;;;;3.97;1.37;;;13.90;99.90;;;;;;5027629;28;20467;-76
2023/10/29 11:19:42;;;;;;;2.20;1.80;;;13.90;99.90;;;;;;5027640;28;20426;-75
2023/10/29 11:22:29;;;;;;;4.40;1.70;;;14.00;99.90;;;;;;5028505;28;21077;-76
2023/10/29 11:25:40;;;;;;;2.47;1.50;;;14.00;99.90;;;;;;5030958;28;20402;-76
2023/10/29 11:28:47;;;;;;;8.90;1.83;;;14.00;99.90;;;;;;5027364;28;20578;-75
2023/10/29 11:31:34;;;;;;;7.93;2.07;;;14.00;99.90;;;;;;5025324;28;21009;-75
2023/10/29 11:34:35;;;;;;;3.80;2.20;;;14.10;99.90;;;;;;5025929;28;20447;-76
2023/10/29 11:37:37;;;;;;;5.10;1.50;;;14.10;99.90;;;;;;5026228;28;20568;-75
2023/10/29 11:40:34;;;;;;;4.30;1.87;;;14.10;99.90;;;;;;5027386;28;20442;-76
2023/10/29 11:43:22;;;;;;;7.03;2.47;;;14.10;99.90;;;;;;5025513;28;20503;-75
2023/10/29 11:46:08;;;;;;;3.80;1.77;;;14.20;99.90;;;;;;5027358;28;20519;-76
2023/10/29 11:49:05;;;;;;;2.93;2.00;;;14.10;99.90;;;;;;5025140;28;20417;-76
2023/10/29 11:51:54;;;;;;;2.63;1.63;;;14.20;99.90;;;;;;5028471;28;20613;-75
2023/10/29 11:54:40;;;;;;;3.83;1.90;;;14.30;99.90;;;;;;5028322;28;20530;-76
2023/10/29 11:57:26;;;;;;;6.20;2.10;;;14.30;99.90;;;;;;5028858;28;20779;-76
2023/10/29 12:00:13;;;;;;;7.97;1.80;;;14.30;99.90;;;;;;5030348;28;20443;-75
2023/10/29 12:03:22;;;;;;;3.87;2.03;;;14.30;99.90;;;;;;5026616;28;20974;-75
2023/10/29 12:06:09;;;;;;;6.40;1.80;;;14.20;99.90;;;;;;5025504;28;20555;-76
2023/10/29 12:08:55;;;;;;;5.43;1.70;;;14.20;99.90;;;;;;5021963;28;20450;-75
2023/10/29 12:11:41;;;;;;;4.00;2.00;;;14.30;99.90;;;;;;5024152;28;20506;-75
2023/10/29 12:14:40;;;;;;;4.17;1.33;;;14.30;99.90;;;;;;5026979;28;20500;-75
2023/10/29 12:17:27;;;;;;;4.23;2.37;;;14.30;99.90;;;;;;5027584;28;20452;-76
2023/10/29 12:20:21;;;;;;;6.57;2.03;;;14.40;99.90;;;;;;5027448;28;20524;-75
2023/10/29 12:23:08;;;;;;;3.67;2.10;;;14.50;99.90;;;;;;5026365;28;20478;-75
2023/10/29 12:25:55;;;;;;;4.97;1.80;;;14.50;99.90;;;;;;5029030;28;20395;-75
2023/10/29 12:28:41;;;;;;;2.30;1.53;;;14.50;99.90;;;;;;5024978;28;21001;-75
2023/10/29 12:31:29;;;;;;;3.07;1.70;;;14.50;99.90;;;;;;5026770;28;21329;-75
2023/10/29 12:34:15;;;;;;;2.77;1.40;;;14.60;99.90;;;;;;5027482;28;20444;-75
2023/10/29 12:37:01;;;;;;;3.83;1.90;;;14.60;99.90;;;;;;5026644;28;20461;-75
2023/10/29 12:39:49;;;;;;;3.10;1.70;;;14.50;99.90;;;;;;5027332;28;20527;-75
2023/10/29 12:42:51;;;;;;;6.40;1.73;;;14.50;99.90;;;;;;5028891;28;20438;-75
2023/10/29 12:45:37;;;;;;;3.87;1.83;;;14.50;99.90;;;;;;5024298;28;20394;-75
2023/10/29 12:48:24;;;;;;;3.47;2.20;;;14.50;99.90;;;;;;5027194;28;20443;-74
2023/10/29 12:51:09;;;;;;;2.97;1.97;;;14.40;99.90;;;;;;5031487;28;20206;-75
2023/10/29 12:54:11;;;;;;;6.60;1.87;;;14.40;99.90;;;;;;5030938;28;20969;-76
2023/10/29 12:57:01;;;;;;;3.77;1.80;;;14.50;99.90;;;;;;5032409;28;20441;-75
2023/10/29 12:59:48;;;;;;;2.20;1.50;;;14.40;99.90;;;;;;5031698;28;20421;-75
2023/10/29 13:02:33;;;;;;;4.10;1.80;;;14.30;99.90;;;;;;5032686;28;20455;-75
2023/10/29 13:05:19;;;;;;;5.30;2.13;;;14.30;99.90;;;;;;5019605;28;20447;-75
2023/10/29 13:08:05;;;;;;;3.90;1.60;;;14.30;99.90;;;;;;5032236;28;20788;-75
2023/10/29 13:10:52;;;;;;;8.80;1.90;;;14.30;99.90;;;;;;5031054;28;20443;-74
2023/10/29 13:13:38;;;;;;;4.60;1.97;;;14.30;99.90;;;;;;5031439;28;20815;-74
2023/10/29 13:16:24;;;;;;;2.87;2.13;;;14.30;99.90;;;;;;5030964;28;20977;-74
2023/10/29 13:19:11;;;;;;;9.50;2.17;;;14.20;99.90;;;;;;5031080;28;21022;-74
2023/10/29 13:21:57;;;;;;;7.30;2.00;;;14.20;99.90;;;;;;5030357;28;20811;-74
2023/10/29 13:24:42;;;;;;;2.40;1.80;;;14.10;99.90;;;;;;5031395;28;20415;-74
2023/10/29 13:27:28;;;;;;;2.80;1.80;;;14.20;99.90;;;;;;5031200;28;20576;-74
2023/10/29 13:30:15;;;;;;;11.03;2.17;;;14.10;99.90;;;;;;5031319;28;20423;-74
2023/10/29 13:33:00;;;;;;;8.43;2.07;;;14.10;99.90;;;;;;5031084;28;20897;-75
2023/10/29 13:35:46;;;;;;;3.37;2.10;;;14.10;99.90;;;;;;5032109;28;20789;-74
2023/10/29 13:38:32;;;;;;;6.60;3.57;;;14.10;99.90;;;;;;5029678;28;20426;-74
2023/10/29 13:41:17;;;;;;;10.40;2.60;;;14.10;99.90;;;;;;5030443;28;20529;-74
2023/10/29 13:44:03;;;;;;;4.30;1.90;;;14.10;99.90;;;;;;5030051;28;20501;-74
2023/10/29 13:46:50;;;;;;;7.37;2.00;;;14.10;99.90;;;;;;5027454;28;20448;-74
2023/10/29 13:49:36;;;;;;;2.70;2.00;;;14.00;99.90;;;;;;5031375;28;20451;-74
2023/10/29 13:52:21;;;;;;;3.80;2.03;;;14.00;99.90;;;;;;5030652;28;20451;-74
2023/10/29 13:55:08;;;;;;;4.03;1.57;;;14.00;99.90;;;;;;5029288;28;20440;-75
2023/10/29 13:57:53;;;;;;;8.13;2.23;;;14.10;99.90;;;;;;5030907;28;20433;-74
2023/10/29 14:00:39;;;;;;;3.40;2.07;;;14.10;99.90;;;;;;5030702;28;20418;-74
2023/10/29 14:03:26;;;;;;;5.60;2.13;;;14.10;99.90;;;;;;5026875;28;20819;-74
2023/10/29 14:06:11;;;;;;;2.90;2.10;;;14.10;99.90;;;;;;5027762;28;20521;-74
2023/10/29 14:08:57;;;;;;;7.30;2.60;;;14.10;99.90;;;;;;5024588;28;20499;-75
2023/10/29 14:11:43;;;;;;;2.53;1.80;;;14.20;99.90;;;;;;5021698;28;20577;-74
2023/10/29 14:14:28;;;;;;;5.23;2.10;;;14.20;99.90;;;;;;5029982;28;20452;-75
2023/10/29 14:17:14;;;;;;;3.63;1.87;;;14.20;99.90;;;;;;5030322;28;20493;-74
2023/10/29 14:20:01;;;;;;;3.53;2.60;;;14.30;99.90;;;;;;5027838;28;20434;-74
2023/10/29 14:22:47;;;;;;;3.73;2.00;;;14.30;99.90;;;;;;5030922;28;20528;-74
2023/10/29 14:25:33;;;;;;;9.03;2.17;;;14.30;99.90;;;;;;5029507;28;20439;-74
2023/10/29 14:28:18;;;;;;;3.60;1.97;;;14.30;99.90;;;;;;5029860;28;20444;-74